Crooks, South Dakota
Current Conditions -  °F | °C
As of 10:56 PM on Saturday 25 Oct 2014 (Local Time) from KFSD Reporting Station
Clear Clear  
Wind Chill: 43°   Ceiling: Unl
Heat Index: 45°   Visibility: 10mi
Dew Point: 35°   Wind: 5mph
Humidity: 68%   Direction: 60°ENE
Pressure: 30.04"   Gusts: NA
Location:  43.66°N, 96.81°W
Report Text: KFSD 260356Z 06004KT 10SM CLR 07/02 A3004 RMK AO2 SLP177 T00720017
Loading
Personal Weather Stations






























Interactive Weather Map
Tropical Storm Tracking
New forecast layout! Learn more

10-Day Weather Forecast

Advertisements
Track Severe Weather on mobile